createdAt,value
2022-11-16T00:01:30.118Z,24.23
2022-11-16T00:03:59.847Z,24.70
2022-11-16T00:06:27.276Z,26.70
2022-11-16T00:09:19.280Z,28.50
2022-11-16T00:11:45.976Z,27.27
2022-11-16T00:14:12.563Z,25.20
2022-11-16T00:16:39.218Z,25.25
2022-11-16T00:19:06.977Z,23.85
2022-11-16T00:21:34.134Z,25.13
2022-11-16T00:24:00.889Z,25.60
2022-11-16T00:26:27.503Z,24.42
2022-11-16T00:28:55.157Z,24.88
2022-11-16T00:31:21.876Z,25.05
2022-11-16T00:33:49.233Z,26.25
2022-11-16T00:36:16.707Z,27.05
2022-11-16T00:38:43.464Z,26.60
2022-11-16T00:41:10.536Z,27.15
2022-11-16T00:43:37.506Z,27.45
2022-11-16T00:46:05.024Z,26.13
2022-11-16T00:48:32.270Z,24.90
2022-11-16T00:50:59.017Z,23.65
2022-11-16T00:53:25.750Z,24.13
2022-11-16T00:55:52.331Z,23.35
2022-11-16T00:58:18.930Z,23.63
2022-11-16T01:00:45.562Z,25.40
2022-11-16T01:03:12.178Z,23.50
2022-11-16T01:05:39.544Z,21.33
2022-11-16T01:08:06.960Z,26.50
2022-11-16T01:10:33.884Z,26.15
2022-11-16T01:13:00.457Z,29.00
2022-11-16T01:15:28.314Z,31.05
2022-11-16T01:17:56.134Z,30.73
2022-11-16T01:20:25.745Z,29.15
2022-11-16T01:22:52.749Z,29.92
2022-11-16T01:25:20.239Z,28.80
2022-11-16T01:27:47.373Z,25.88
2022-11-16T01:30:16.602Z,24.40
2022-11-16T01:32:43.507Z,25.10
2022-11-16T01:35:15.643Z,25.15
2022-11-16T01:37:42.257Z,23.42
2022-11-16T01:40:10.133Z,23.08
2022-11-16T01:42:36.887Z,23.70
2022-11-16T01:45:06.627Z,24.02
2022-11-16T01:47:33.728Z,22.52
2022-11-16T01:50:11.672Z,23.25
2022-11-16T01:52:44.269Z,24.23
2022-11-16T01:55:12.013Z,22.38
2022-11-16T01:57:43.134Z,23.17
2022-11-16T02:00:12.245Z,23.85
2022-11-16T02:02:38.842Z,23.73
2022-11-16T02:05:06.895Z,25.60
2022-11-16T02:08:16.539Z,27.55
2022-11-16T02:11:21.223Z,23.95
2022-11-16T02:14:32.348Z,24.65
2022-11-16T02:17:21.424Z,22.30
2022-11-16T02:20:19.684Z,23.30
2022-11-16T02:22:53.074Z,24.67
2022-11-16T02:25:30.663Z,25.92
2022-11-16T02:28:15.051Z,28.13
2022-11-16T02:30:47.606Z,25.13
2022-11-16T02:33:20.180Z,27.13
2022-11-16T02:35:56.836Z,26.83
2022-11-16T02:38:35.944Z,23.60
2022-11-16T02:41:08.267Z,23.83
2022-11-16T02:43:42.694Z,23.90
2022-11-16T02:46:16.709Z,24.08
2022-11-16T02:48:50.121Z,22.10
2022-11-16T02:51:18.767Z,23.02
2022-11-16T02:54:08.638Z,24.67
2022-11-16T02:57:02.998Z,23.67
2022-11-16T02:59:36.698Z,28.35
2022-11-16T03:02:20.861Z,22.67
2022-11-16T03:04:52.161Z,22.35
2022-11-16T03:07:24.000Z,22.63
2022-11-16T03:09:52.073Z,21.60
2022-11-16T03:12:25.441Z,22.83
2022-11-16T03:14:59.371Z,25.77
2022-11-16T03:17:30.505Z,23.60
2022-11-16T03:20:12.372Z,24.42
2022-11-16T03:22:46.349Z,23.45
2022-11-16T03:25:16.454Z,23.00
2022-11-16T03:27:42.972Z,25.48
2022-11-16T03:30:24.518Z,25.83
2022-11-16T03:33:09.040Z,22.63
2022-11-16T03:35:46.176Z,24.48
2022-11-16T03:38:15.477Z,23.05
2022-11-16T03:40:45.869Z,22.70
2022-11-16T03:43:13.249Z,24.48
2022-11-16T03:45:40.704Z,23.60
2022-11-16T03:48:08.063Z,24.58
2022-11-16T03:50:34.637Z,23.10
2022-11-16T03:53:01.206Z,24.60
2022-11-16T03:55:27.789Z,24.55
2022-11-16T03:57:54.427Z,26.73
2022-11-16T04:00:21.049Z,26.38
2022-11-16T04:02:47.624Z,24.50
2022-11-16T04:05:32.655Z,25.30
2022-11-16T04:08:18.196Z,25.70
2022-11-16T04:11:03.347Z,25.38
2022-11-16T04:13:50.734Z,29.85
2022-11-16T04:16:36.219Z,27.45
2022-11-16T04:19:21.039Z,25.35
2022-11-16T04:22:12.414Z,24.80
2022-11-16T04:24:41.177Z,26.95
2022-11-16T04:27:29.640Z,28.35
2022-11-16T04:29:57.983Z,27.95
2022-11-16T04:32:43.049Z,23.60
2022-11-16T04:35:28.376Z,22.65
2022-11-16T04:37:57.076Z,22.42
2022-11-16T04:40:27.964Z,20.70
2022-11-16T04:42:56.626Z,21.83
2022-11-16T04:45:42.712Z,29.05
2022-11-16T04:48:09.958Z,30.40
2022-11-16T04:50:37.082Z,30.95
2022-11-16T04:53:05.281Z,35.60
2022-11-16T04:55:32.734Z,31.60
2022-11-16T04:57:59.772Z,35.50
2022-11-16T05:00:26.673Z,34.05
2022-11-16T05:02:58.211Z,37.35
2022-11-16T05:05:27.511Z,32.70
2022-11-16T05:07:54.118Z,29.55
2022-11-16T05:10:20.650Z,29.75
2022-11-16T05:12:47.287Z,34.92
2022-11-16T05:15:13.940Z,35.35
2022-11-16T05:17:40.545Z,32.78
2022-11-16T05:20:26.476Z,29.45
2022-11-16T05:22:55.053Z,32.35
2022-11-16T05:25:21.891Z,30.73
2022-11-16T05:27:48.787Z,31.58
2022-11-16T05:30:15.656Z,27.55
2022-11-16T05:32:42.196Z,28.20
2022-11-16T05:35:08.882Z,27.85
2022-11-16T05:37:35.596Z,25.15
2022-11-16T05:40:02.155Z,26.58
2022-11-16T05:42:28.724Z,28.48
2022-11-16T05:44:55.357Z,28.67
2022-11-16T05:47:22.026Z,30.38
2022-11-16T05:49:48.624Z,28.92
2022-11-16T05:52:15.237Z,32.67
2022-11-16T05:54:41.774Z,28.85
2022-11-16T05:57:08.407Z,28.15
2022-11-16T05:59:35.338Z,30.45
2022-11-16T06:02:03.988Z,29.85
2022-11-16T06:04:30.605Z,28.95
2022-11-16T06:06:57.212Z,29.65
2022-11-16T06:09:23.757Z,29.00
2022-11-16T06:11:50.376Z,26.30
2022-11-16T06:14:17.016Z,28.05
2022-11-16T06:16:43.669Z,28.00
2022-11-16T06:19:10.252Z,26.48
2022-11-16T06:21:36.896Z,27.83
2022-11-16T06:24:08.894Z,27.30
2022-11-16T06:26:36.284Z,27.85
2022-11-16T06:29:03.194Z,26.30
2022-11-16T06:31:30.258Z,36.80
2022-11-16T06:33:56.774Z,32.03
2022-11-16T06:36:23.383Z,31.45
2022-11-16T06:38:50.937Z,29.70
2022-11-16T06:41:17.625Z,31.60
2022-11-16T06:43:44.435Z,28.38
2022-11-16T06:46:11.088Z,30.42
2022-11-16T06:48:37.893Z,31.65
2022-11-16T06:51:04.624Z,32.33
2022-11-16T06:56:16.420Z,29.27
2022-11-16T06:58:43.208Z,28.27
2022-11-16T07:01:11.570Z,29.02
2022-11-16T07:03:38.624Z,27.65
2022-11-16T07:06:10.812Z,25.70
2022-11-16T07:08:38.016Z,26.90
2022-11-16T07:11:06.440Z,26.27
2022-11-16T07:13:34.405Z,26.27
2022-11-16T07:16:03.088Z,27.80
2022-11-16T07:18:29.773Z,29.02
2022-11-16T07:20:56.321Z,28.08
2022-11-16T07:23:22.945Z,27.90
2022-11-16T07:25:49.494Z,26.30
2022-11-16T07:28:16.064Z,26.52
2022-11-16T07:30:44.721Z,29.27
2022-11-16T07:33:11.367Z,29.88
2022-11-16T07:35:37.930Z,28.10
2022-11-16T07:38:04.546Z,29.00
2022-11-16T07:40:31.151Z,31.42
2022-11-16T07:42:58.760Z,31.42
2022-11-16T07:45:25.347Z,31.55
2022-11-16T07:47:53.533Z,30.90
2022-11-16T07:50:20.209Z,30.75
2022-11-16T07:52:46.890Z,32.25
2022-11-16T07:55:13.619Z,33.80
2022-11-16T07:57:40.457Z,32.42
2022-11-16T08:00:08.362Z,32.88
2022-11-16T08:02:34.993Z,32.28
2022-11-16T08:05:01.606Z,33.65
2022-11-16T08:07:28.210Z,35.15
2022-11-16T08:09:55.451Z,35.65
2022-11-16T08:12:22.077Z,35.58
2022-11-16T08:14:48.669Z,36.45
2022-11-16T08:17:15.752Z,34.33
2022-11-16T08:19:42.512Z,35.45
2022-11-16T08:22:09.494Z,33.85
2022-11-16T08:24:36.057Z,33.28
2022-11-16T08:27:03.117Z,35.17
2022-11-16T08:29:29.731Z,33.85
2022-11-16T08:31:56.297Z,33.03
2022-11-16T08:34:22.951Z,33.60
2022-11-16T08:36:49.613Z,28.40
2022-11-16T08:39:17.396Z,31.25
2022-11-16T08:41:44.413Z,29.13
2022-11-16T08:44:11.485Z,29.85
2022-11-16T08:46:38.099Z,30.20
2022-11-16T08:49:04.749Z,34.33
2022-11-16T08:54:15.235Z,26.90
2022-11-16T08:56:41.778Z,26.23
2022-11-16T08:59:08.327Z,27.88
2022-11-16T09:01:35.027Z,29.67
2022-11-16T09:04:01.793Z,28.45
2022-11-16T09:06:28.757Z,28.38
2022-11-16T09:08:56.281Z,24.77
2022-11-16T09:11:24.694Z,26.65
2022-11-16T09:16:37.127Z,46.97
2022-11-16T09:19:03.662Z,28.02
2022-11-16T09:21:30.686Z,26.15
2022-11-16T09:23:58.083Z,26.85
2022-11-16T09:26:25.424Z,26.77
2022-11-16T09:29:00.548Z,22.67
2022-11-16T09:31:28.671Z,24.42
2022-11-16T09:33:58.692Z,24.75
2022-11-16T09:36:27.528Z,25.50
2022-11-16T09:39:25.749Z,22.20
2022-11-16T09:42:18.750Z,23.40
2022-11-16T09:44:48.256Z,22.45
2022-11-16T09:47:21.867Z,22.05
2022-11-16T09:50:01.680Z,22.02
2022-11-16T09:52:37.088Z,22.65
2022-11-16T09:55:19.113Z,21.42
2022-11-16T09:57:47.401Z,21.58
2022-11-16T10:00:19.632Z,20.08
2022-11-16T10:03:00.392Z,17.48
2022-11-16T10:05:30.084Z,19.35
2022-11-16T10:08:09.882Z,20.75
2022-11-16T10:10:36.349Z,18.75
2022-11-16T10:13:14.989Z,19.85
2022-11-16T10:16:10.662Z,19.88
2022-11-16T10:19:25.227Z,19.90
2022-11-16T10:22:49.090Z,20.23
2022-11-16T10:25:38.109Z,18.63
2022-11-16T10:28:04.618Z,20.02
2022-11-16T10:30:40.384Z,18.33
2022-11-16T10:33:12.770Z,17.17
2022-11-16T10:35:49.207Z,18.33
2022-11-16T10:38:25.015Z,18.40
2022-11-16T10:41:18.453Z,17.73
2022-11-16T10:43:47.041Z,19.45
2022-11-16T10:46:31.445Z,17.33
2022-11-16T10:49:13.169Z,18.00
2022-11-16T10:51:39.814Z,18.13
2022-11-16T10:54:17.137Z,17.20
2022-11-16T10:56:47.185Z,15.98
2022-11-16T10:59:34.817Z,21.88
2022-11-16T11:02:21.192Z,17.30
2022-11-16T11:05:08.228Z,18.20
2022-11-16T11:07:40.045Z,17.27
2022-11-16T11:10:30.473Z,16.65
2022-11-16T11:13:26.275Z,18.80
2022-11-16T11:16:13.782Z,17.52
2022-11-16T11:18:40.383Z,16.95
2022-11-16T11:21:13.993Z,17.23
2022-11-16T11:23:51.612Z,16.45
2022-11-16T11:26:35.964Z,17.90
2022-11-16T11:29:22.625Z,16.83
2022-11-16T11:31:52.956Z,18.92
2022-11-16T11:34:23.657Z,19.42
2022-11-16T11:36:57.692Z,18.33
2022-11-16T11:44:49.815Z,17.98
2022-11-16T11:50:45.802Z,18.27
2022-11-16T11:53:24.636Z,17.48
2022-11-16T11:55:57.826Z,19.55
2022-11-16T11:58:34.026Z,18.63
2022-11-16T12:01:24.872Z,19.40
2022-11-16T12:04:13.871Z,18.77
2022-11-16T12:07:16.128Z,16.67
2022-11-16T12:10:01.001Z,18.80
2022-11-16T12:12:51.963Z,16.83
2022-11-16T12:15:35.443Z,15.43
2022-11-16T12:18:43.645Z,16.02
2022-11-16T12:21:19.606Z,14.95
2022-11-16T12:23:56.114Z,15.45
2022-11-16T12:26:44.909Z,16.48
2022-11-16T12:29:23.769Z,15.48
2022-11-16T12:32:13.545Z,12.20
2022-11-16T12:35:00.330Z,14.27
2022-11-16T12:37:45.249Z,14.30
2022-11-16T12:40:33.720Z,13.43
2022-11-16T12:43:21.368Z,14.43
2022-11-16T12:46:29.319Z,13.77
2022-11-16T12:49:24.353Z,13.82
2022-11-16T12:51:55.797Z,12.88
2022-11-16T12:55:19.093Z,15.13
2022-11-16T12:57:57.792Z,13.02
2022-11-16T13:00:24.410Z,14.77
2022-11-16T13:03:18.981Z,13.57
2022-11-16T13:05:59.362Z,12.88
2022-11-16T13:08:45.975Z,13.95
2022-11-16T13:11:20.890Z,13.98
2022-11-16T13:13:53.929Z,14.73
2022-11-16T13:16:22.869Z,15.38
2022-11-16T13:18:50.563Z,14.93
2022-11-16T13:21:34.072Z,10.23
2022-11-16T13:24:05.420Z,11.48
2022-11-16T13:27:09.468Z,12.75
2022-11-16T13:29:59.520Z,12.52
2022-11-16T13:32:44.537Z,11.95
2022-11-16T13:35:16.662Z,10.75
2022-11-16T13:37:50.913Z,9.73
2022-11-16T13:40:30.544Z,10.13
2022-11-16T13:43:09.247Z,11.32
2022-11-16T13:45:44.566Z,10.10
2022-11-16T13:48:25.586Z,10.82
2022-11-16T13:50:55.194Z,10.55
2022-11-16T13:56:57.397Z,12.75
2022-11-16T13:59:28.275Z,11.32
2022-11-16T14:02:04.162Z,11.75
2022-11-16T14:05:01.166Z,11.98
2022-11-16T14:07:47.368Z,13.27
2022-11-16T14:10:32.838Z,16.45
2022-11-16T14:13:00.412Z,14.30
2022-11-16T14:15:38.676Z,14.25
2022-11-16T14:18:08.698Z,15.10
2022-11-16T14:20:51.175Z,15.82
2022-11-16T14:23:47.001Z,16.20
2022-11-16T14:26:19.101Z,15.77
2022-11-16T14:29:07.548Z,15.35
2022-11-16T14:31:57.511Z,17.00
2022-11-16T14:34:48.128Z,18.67
2022-11-16T14:37:29.763Z,18.48
2022-11-16T14:40:14.801Z,17.23
2022-11-16T14:43:23.050Z,20.55
2022-11-16T14:45:56.802Z,18.80
2022-11-16T14:48:27.947Z,20.67
2022-11-16T14:51:22.929Z,28.95
2022-11-16T14:53:54.972Z,37.55
2022-11-16T14:56:22.029Z,33.17
2022-11-16T14:58:53.900Z,44.28
2022-11-16T15:01:31.291Z,41.53
2022-11-16T15:04:04.414Z,43.90
2022-11-16T15:06:40.688Z,40.22
2022-11-16T15:09:07.563Z,42.35
2022-11-16T15:11:58.201Z,49.53
2022-11-16T15:14:30.035Z,60.33
2022-11-16T15:16:59.050Z,68.28
2022-11-16T15:19:30.405Z,84.13
2022-11-16T15:21:59.612Z,84.80
2022-11-16T15:24:32.467Z,88.38
2022-11-16T15:27:34.076Z,77.97
2022-11-16T15:30:18.447Z,70.63
2022-11-16T15:32:47.172Z,68.68
2022-11-16T15:35:25.717Z,53.67
2022-11-16T15:38:14.599Z,56.33
2022-11-16T15:40:50.700Z,56.13
2022-11-16T15:43:19.162Z,51.63
2022-11-16T15:45:46.647Z,59.03
2022-11-16T15:48:20.052Z,57.38
2022-11-16T15:51:23.414Z,78.75
2022-11-16T15:53:53.281Z,79.47
2022-11-16T15:56:25.991Z,85.97
2022-11-16T15:58:58.959Z,84.53
2022-11-16T16:01:25.979Z,92.05
2022-11-16T16:04:05.972Z,81.47
2022-11-16T16:06:54.468Z,79.32
2022-11-16T16:09:39.266Z,94.97
2022-11-16T16:12:16.827Z,78.72
2022-11-16T16:14:44.268Z,81.30
2022-11-16T16:17:21.158Z,75.43
2022-11-16T16:19:55.747Z,76.30
2022-11-16T16:22:29.649Z,71.43
2022-11-16T16:24:56.600Z,60.35
2022-11-16T16:27:29.066Z,56.70
2022-11-16T16:29:58.005Z,52.80
2022-11-16T16:32:32.821Z,50.42
2022-11-16T16:35:02.094Z,42.22
2022-11-16T16:37:31.021Z,46.15
2022-11-16T16:39:58.439Z,49.58
2022-11-16T16:42:25.456Z,51.17
2022-11-16T16:44:54.365Z,48.25
2022-11-16T16:47:21.509Z,55.17
2022-11-16T16:49:50.906Z,71.55
2022-11-16T16:52:18.296Z,67.72
2022-11-16T16:54:44.928Z,66.55
2022-11-16T16:57:16.292Z,54.53
2022-11-16T16:59:45.320Z,49.92
2022-11-16T17:02:17.517Z,46.38
2022-11-16T17:04:49.081Z,51.40
2022-11-16T17:07:18.559Z,50.38
2022-11-16T17:09:45.678Z,53.28
2022-11-16T17:12:12.567Z,61.35
2022-11-16T17:14:39.199Z,62.50
2022-11-16T17:17:05.874Z,65.47
2022-11-16T17:19:32.929Z,58.20
2022-11-16T17:22:00.197Z,54.42
2022-11-16T17:24:26.893Z,58.65
2022-11-16T17:26:53.658Z,59.78
2022-11-16T17:29:20.291Z,56.70
2022-11-16T17:31:47.700Z,53.95
2022-11-16T17:34:14.660Z,54.25
2022-11-16T17:36:42.464Z,64.25
2022-11-16T17:39:09.456Z,67.50
2022-11-16T17:41:36.632Z,60.63
2022-11-16T17:44:04.528Z,57.80
2022-11-16T17:46:31.217Z,53.88
2022-11-16T17:48:57.975Z,47.60
2022-11-16T17:51:25.353Z,48.10
2022-11-16T17:53:53.783Z,51.40
2022-11-16T17:56:28.249Z,55.13
2022-11-16T17:58:58.620Z,57.58
2022-11-16T18:01:28.289Z,63.03
2022-11-16T18:03:56.060Z,58.20
2022-11-16T18:06:25.118Z,68.70
2022-11-16T18:08:52.985Z,67.13
2022-11-16T18:11:22.501Z,61.80
2022-11-16T18:13:53.576Z,59.38
2022-11-16T18:16:22.638Z,54.70
2022-11-16T18:18:50.000Z,52.70
2022-11-16T18:21:20.754Z,54.95
2022-11-16T18:23:47.982Z,58.03
2022-11-16T18:26:17.572Z,55.80
2022-11-16T18:28:51.761Z,58.03
2022-11-16T18:31:20.543Z,59.38
2022-11-16T18:33:49.241Z,52.38
2022-11-16T18:36:16.584Z,55.33
2022-11-16T18:38:43.211Z,57.85
2022-11-16T18:41:19.645Z,54.90
2022-11-16T18:43:56.082Z,55.75
2022-11-16T18:46:28.057Z,50.58
2022-11-16T18:48:55.958Z,47.90
2022-11-16T18:51:24.421Z,43.83
2022-11-16T18:53:51.064Z,42.83
2022-11-16T18:56:18.060Z,38.92
2022-11-16T18:58:53.366Z,37.40
2022-11-16T19:01:23.230Z,40.03
2022-11-16T19:03:51.176Z,37.17
2022-11-16T19:06:18.268Z,35.38
2022-11-16T19:08:50.427Z,37.25
2022-11-16T19:11:20.760Z,36.05
2022-11-16T19:13:56.264Z,37.90
2022-11-16T19:16:24.049Z,38.63
2022-11-16T19:18:50.630Z,38.13
2022-11-16T19:21:18.728Z,34.63
2022-11-16T19:23:48.045Z,34.42
2022-11-16T19:26:16.124Z,32.72
2022-11-16T19:28:44.877Z,29.70
2022-11-16T19:31:25.390Z,30.40
2022-11-16T19:34:07.060Z,30.75
2022-11-16T19:36:36.199Z,31.10
2022-11-16T19:39:04.222Z,31.08
2022-11-16T19:41:30.795Z,29.65
2022-11-16T19:43:59.959Z,31.30
2022-11-16T19:46:28.742Z,33.17
2022-11-16T19:48:56.189Z,34.00
2022-11-16T19:51:31.043Z,34.65
2022-11-16T19:53:59.323Z,31.50
2022-11-16T19:56:26.591Z,32.70
2022-11-16T19:58:53.359Z,30.75
2022-11-16T20:01:23.062Z,32.28
2022-11-16T20:03:50.046Z,30.02
2022-11-16T20:06:31.409Z,29.30
2022-11-16T20:09:03.943Z,26.70
2022-11-16T20:11:33.706Z,38.67
2022-11-16T20:14:00.799Z,32.25
2022-11-16T20:16:34.035Z,32.20
2022-11-16T20:19:05.482Z,33.83
2022-11-16T20:21:34.729Z,40.38
2022-11-16T20:24:06.815Z,41.40
2022-11-16T20:26:35.853Z,40.63
2022-11-16T20:29:03.041Z,44.00
2022-11-16T20:31:32.029Z,44.20
2022-11-16T20:34:04.478Z,42.83
2022-11-16T20:36:32.985Z,44.85
2022-11-16T20:39:00.305Z,47.17
2022-11-16T20:41:28.878Z,44.28
2022-11-16T20:43:57.453Z,47.70
2022-11-16T20:46:28.749Z,63.80
2022-11-16T20:48:57.349Z,73.95
2022-11-16T20:51:24.070Z,63.65
2022-11-16T20:53:50.759Z,68.47
2022-11-16T20:56:19.301Z,58.20
2022-11-16T20:58:46.875Z,54.70
2022-11-16T21:01:16.167Z,59.80
2022-11-16T21:03:44.625Z,60.60
2022-11-16T21:06:12.859Z,58.03
2022-11-16T21:08:40.504Z,57.58
2022-11-16T21:11:16.007Z,57.22
2022-11-16T21:14:01.530Z,59.10
2022-11-16T21:16:28.195Z,45.90
2022-11-16T21:18:55.642Z,40.75
2022-11-16T21:21:22.413Z,30.20
2022-11-16T21:23:51.935Z,31.02
2022-11-16T21:26:26.370Z,33.13
2022-11-16T21:28:53.377Z,31.38
2022-11-16T21:31:22.423Z,32.03
2022-11-16T21:33:49.006Z,35.13
2022-11-16T21:36:17.695Z,34.10
2022-11-16T21:38:45.220Z,34.38
2022-11-16T21:41:13.249Z,37.75
2022-11-16T21:43:42.722Z,35.83
2022-11-16T21:46:18.433Z,35.25
2022-11-16T21:48:46.959Z,36.35
2022-11-16T21:51:19.326Z,32.90
2022-11-16T21:53:46.078Z,33.00
2022-11-16T21:56:15.028Z,33.72
2022-11-16T21:58:42.104Z,37.40
2022-11-16T22:01:09.887Z,38.83
2022-11-16T22:03:37.062Z,34.47
2022-11-16T22:06:24.001Z,39.88
2022-11-16T22:08:50.632Z,38.25
2022-11-16T22:11:17.912Z,34.63
2022-11-16T22:13:44.449Z,34.15
2022-11-16T22:16:15.142Z,35.80
2022-11-16T22:18:42.307Z,34.60
2022-11-16T22:21:09.265Z,36.88
2022-11-16T22:23:36.455Z,39.80
2022-11-16T22:26:11.596Z,46.25
2022-11-16T22:28:39.355Z,60.22
2022-11-16T22:31:14.097Z,65.05
2022-11-16T22:33:41.384Z,55.63
2022-11-16T22:36:10.202Z,49.63
2022-11-16T22:38:37.413Z,45.20
2022-11-16T22:41:04.333Z,38.72
2022-11-16T22:43:32.552Z,33.72
2022-11-16T22:46:05.542Z,34.85
2022-11-16T22:48:34.112Z,47.67
2022-11-16T22:51:09.793Z,47.85
2022-11-16T22:53:36.648Z,45.85
2022-11-16T22:56:05.365Z,45.15
2022-11-16T22:58:31.955Z,42.53
2022-11-16T23:00:58.558Z,40.90
2022-11-16T23:03:25.180Z,41.13
2022-11-16T23:05:51.838Z,41.88
2022-11-16T23:08:18.421Z,40.05
2022-11-16T23:11:03.750Z,43.15
2022-11-16T23:13:48.785Z,43.58
2022-11-16T23:16:15.319Z,42.50
2022-11-16T23:18:41.860Z,43.40
2022-11-16T23:21:27.345Z,38.35
2022-11-16T23:24:12.363Z,33.42
2022-11-16T23:26:57.648Z,31.48
2022-11-16T23:29:24.263Z,30.02
2022-11-16T23:31:50.796Z,30.65
2022-11-16T23:34:17.383Z,31.90
2022-11-16T23:36:43.929Z,32.22
2022-11-16T23:39:10.627Z,29.55
2022-11-16T23:41:55.833Z,33.05
2022-11-16T23:44:22.396Z,30.40
2022-11-16T23:46:48.940Z,29.35
2022-11-16T23:49:15.502Z,32.03
2022-11-16T23:51:42.032Z,32.80
2022-11-16T23:54:08.631Z,31.52
2022-11-16T23:56:35.238Z,34.65
2022-11-16T23:59:01.790Z,34.30
